createdAt,value
2017-09-21T00:02:27.077Z,15.50
2017-09-21T00:04:55.870Z,15.20
2017-09-21T00:07:24.744Z,15.40
2017-09-21T00:09:53.484Z,15.50
2017-09-21T00:12:24.043Z,15.40
2017-09-21T00:14:53.481Z,15.40
2017-09-21T00:17:22.632Z,15.60
2017-09-21T00:19:51.234Z,15.50
2017-09-21T00:22:21.150Z,15.20
2017-09-21T00:24:50.664Z,15.60
2017-09-21T00:27:24.610Z,15.60
2017-09-21T00:29:53.223Z,15.20
2017-09-21T00:32:23.585Z,15.50
2017-09-21T00:34:52.652Z,15.50
2017-09-21T00:37:22.428Z,15.30
2017-09-21T00:39:51.132Z,15.50
2017-09-21T00:42:19.913Z,15.40
2017-09-21T00:44:49.723Z,15.10
2017-09-21T00:47:18.495Z,15.40
2017-09-21T00:49:47.678Z,15.30
2017-09-21T00:52:17.155Z,15.30
2017-09-21T00:54:46.690Z,15.40
2017-09-21T00:57:16.107Z,15.10
2017-09-21T00:59:50.598Z,15.20
2017-09-21T01:02:20.689Z,15.00
2017-09-21T01:04:49.381Z,14.90
2017-09-21T01:07:18.071Z,14.80
2017-09-21T01:09:47.451Z,15.10
2017-09-21T01:12:16.273Z,15.30
2017-09-21T01:14:44.714Z,15.30
2017-09-21T01:17:14.111Z,15.20
2017-09-21T01:19:42.689Z,15.00
2017-09-21T01:22:11.316Z,15.20
2017-09-21T01:24:40.386Z,15.20
2017-09-21T01:27:10.031Z,15.00
2017-09-21T01:29:38.785Z,15.00
2017-09-21T01:32:09.080Z,15.10
2017-09-21T01:34:37.655Z,14.80
2017-09-21T01:37:08.200Z,15.10
2017-09-21T01:39:37.755Z,15.00
2017-09-21T01:42:07.328Z,14.60
2017-09-21T01:44:36.570Z,15.00
2017-09-21T01:47:06.203Z,15.00
2017-09-21T01:49:35.674Z,14.80
2017-09-21T01:52:04.415Z,14.70
2017-09-21T01:54:33.112Z,14.80
2017-09-21T01:57:03.126Z,14.60
2017-09-21T01:59:36.812Z,15.00
2017-09-21T02:02:07.408Z,14.90
2017-09-21T02:04:36.215Z,14.70
2017-09-21T02:07:07.830Z,14.80
2017-09-21T02:09:37.128Z,14.80
2017-09-21T02:12:05.425Z,14.80
2017-09-21T02:14:34.451Z,14.60
2017-09-21T02:17:02.703Z,15.00
2017-09-21T02:19:31.002Z,14.90
2017-09-21T02:21:59.272Z,14.70
2017-09-21T02:24:27.545Z,14.70
2017-09-21T02:26:55.845Z,14.80
2017-09-21T02:29:24.111Z,14.80
2017-09-21T02:31:53.265Z,14.80
2017-09-21T02:34:21.604Z,14.60
2017-09-21T02:36:49.886Z,14.50
2017-09-21T02:39:18.171Z,14.70
2017-09-21T02:41:46.522Z,14.70
2017-09-21T02:44:14.803Z,14.60
2017-09-21T02:46:43.115Z,14.30
2017-09-21T02:49:12.285Z,14.50
2017-09-21T02:51:40.649Z,14.40
2017-09-21T02:54:09.919Z,14.60
2017-09-21T02:56:38.237Z,14.50
2017-09-21T02:59:06.492Z,14.50
2017-09-21T03:01:34.849Z,14.40
2017-09-21T03:04:03.145Z,14.30
2017-09-21T03:06:31.414Z,14.30
2017-09-21T03:09:00.583Z,14.20
2017-09-21T03:11:29.755Z,14.60
2017-09-21T03:13:58.148Z,14.50
2017-09-21T03:16:27.756Z,14.50
2017-09-21T03:18:57.071Z,14.30
2017-09-21T03:21:26.919Z,14.40
2017-09-21T03:23:56.224Z,14.20
2017-09-21T03:26:24.521Z,14.20
2017-09-21T03:28:52.786Z,14.10
2017-09-21T03:31:23.433Z,14.00
2017-09-21T03:33:51.691Z,14.20
2017-09-21T03:36:19.953Z,14.10
2017-09-21T03:38:48.558Z,14.10
2017-09-21T03:41:16.828Z,14.10
2017-09-21T03:43:45.081Z,13.80
2017-09-21T03:46:15.283Z,14.00
2017-09-21T03:48:43.840Z,14.00
2017-09-21T03:51:13.099Z,13.80
2017-09-21T03:53:41.989Z,14.00
2017-09-21T03:56:11.207Z,13.80
2017-09-21T03:58:39.567Z,14.00
2017-09-21T04:01:09.897Z,13.90
2017-09-21T04:03:39.357Z,14.20
2017-09-21T04:06:08.425Z,14.20
2017-09-21T04:08:38.066Z,14.10
2017-09-21T04:11:07.429Z,14.00
2017-09-21T04:13:35.721Z,14.00
2017-09-21T04:16:04.692Z,13.90
2017-09-21T04:18:33.060Z,14.00
2017-09-21T04:21:01.364Z,14.20
2017-09-21T04:23:29.988Z,13.90
2017-09-21T04:25:58.451Z,14.00
2017-09-21T04:28:26.675Z,14.10
2017-09-21T04:30:55.388Z,14.20
2017-09-21T04:33:23.744Z,14.10
2017-09-21T04:35:52.003Z,13.80
2017-09-21T04:38:20.303Z,13.90
2017-09-21T04:40:49.388Z,14.00
2017-09-21T04:43:17.639Z,14.20
2017-09-21T04:45:46.710Z,13.90
2017-09-21T04:48:14.977Z,14.00
2017-09-21T04:50:43.296Z,13.90
2017-09-21T04:53:12.335Z,14.00
2017-09-21T04:55:40.617Z,14.20
2017-09-21T04:58:08.891Z,13.90
2017-09-21T05:00:37.153Z,13.80
2017-09-21T05:03:05.429Z,14.20
2017-09-21T05:05:33.746Z,13.90
2017-09-21T05:08:02.088Z,14.10
2017-09-21T05:10:30.361Z,13.90
2017-09-21T05:12:58.659Z,13.80
2017-09-21T05:15:27.953Z,14.10
2017-09-21T05:17:57.038Z,14.00
2017-09-21T05:20:25.315Z,13.70
2017-09-21T05:22:53.629Z,13.70
2017-09-21T05:25:21.861Z,14.00
2017-09-21T05:27:50.159Z,13.70
2017-09-21T05:30:35.971Z,13.60
2017-09-21T05:33:05.156Z,13.70
2017-09-21T05:35:33.443Z,13.80
2017-09-21T05:38:01.844Z,13.80
2017-09-21T05:40:30.854Z,13.80
2017-09-21T05:42:59.126Z,13.90
2017-09-21T05:45:27.420Z,13.70
2017-09-21T05:47:55.678Z,13.80
2017-09-21T05:50:25.992Z,13.50
2017-09-21T05:52:54.298Z,13.50
2017-09-21T05:55:22.628Z,13.70
2017-09-21T05:57:51.027Z,13.60
2017-09-21T06:00:20.947Z,13.70
2017-09-21T06:02:49.284Z,13.80
2017-09-21T06:05:20.097Z,13.70
2017-09-21T06:07:48.383Z,13.60
2017-09-21T06:10:18.109Z,13.80
2017-09-21T06:12:46.408Z,13.90
2017-09-21T06:15:15.421Z,13.70
2017-09-21T06:17:43.708Z,13.60
2017-09-21T06:20:12.877Z,13.70
2017-09-21T06:22:41.176Z,13.80
2017-09-21T06:25:09.452Z,13.90
2017-09-21T06:27:37.744Z,13.60
2017-09-21T06:30:06.038Z,13.90
2017-09-21T06:32:34.313Z,13.90
2017-09-21T06:35:02.593Z,13.80
2017-09-21T06:37:32.385Z,13.80
2017-09-21T06:40:01.623Z,13.90
2017-09-21T06:42:31.560Z,13.80
2017-09-21T06:44:59.803Z,14.20
2017-09-21T06:47:28.089Z,13.80
2017-09-21T06:49:58.554Z,14.10
2017-09-21T06:52:27.588Z,14.20
2017-09-21T06:54:56.831Z,14.10
2017-09-21T06:57:27.573Z,14.30
2017-09-21T06:59:56.635Z,14.30
2017-09-21T07:02:24.930Z,14.50
2017-09-21T07:04:53.844Z,14.40
2017-09-21T07:07:22.887Z,14.60
2017-09-21T07:09:52.175Z,14.50
2017-09-21T07:12:20.470Z,14.30
2017-09-21T07:14:49.684Z,14.60
2017-09-21T07:17:18.017Z,14.80
2017-09-21T07:19:46.358Z,14.70
2017-09-21T07:22:14.601Z,14.90
2017-09-21T07:24:42.856Z,15.10
2017-09-21T07:27:11.332Z,14.80
2017-09-21T07:29:39.633Z,15.10
2017-09-21T07:32:07.888Z,15.10
2017-09-21T07:34:36.168Z,15.20
2017-09-21T07:37:05.257Z,15.30
2017-09-21T07:39:34.408Z,15.00
2017-09-21T07:42:03.484Z,15.30
2017-09-21T07:44:31.779Z,15.30
2017-09-21T07:47:00.088Z,15.50
2017-09-21T07:49:29.228Z,15.60
2017-09-21T07:51:57.572Z,15.60
2017-09-21T07:54:28.813Z,15.70
2017-09-21T07:56:57.089Z,15.60
2017-09-21T07:59:27.105Z,15.70
2017-09-21T08:01:56.138Z,16.10
2017-09-21T08:04:24.435Z,15.70
2017-09-21T08:06:52.682Z,16.10
2017-09-21T08:09:20.955Z,16.20
2017-09-21T08:11:51.229Z,16.00
2017-09-21T08:14:20.624Z,16.10
2017-09-21T08:16:49.969Z,16.40
2017-09-21T08:19:18.379Z,16.20
2017-09-21T08:21:46.894Z,16.00
2017-09-21T08:24:16.244Z,16.30
2017-09-21T08:26:44.626Z,16.30
2017-09-21T08:29:13.037Z,16.40
2017-09-21T08:31:41.283Z,16.30
2017-09-21T08:34:13.728Z,16.40
2017-09-21T08:36:43.044Z,16.40
2017-09-21T08:39:11.508Z,16.70
2017-09-21T08:41:40.612Z,16.70
2017-09-21T08:44:11.056Z,16.50
2017-09-21T08:49:04.537Z,16.50
2017-09-21T08:51:32.915Z,16.80
2017-09-21T08:54:01.598Z,16.90
2017-09-21T08:56:30.167Z,16.90
2017-09-21T08:58:58.723Z,16.80
2017-09-21T09:01:28.355Z,17.10
2017-09-21T09:03:57.090Z,17.10
2017-09-21T09:06:26.081Z,16.80
2017-09-21T09:08:55.117Z,17.50
2017-09-21T09:11:23.531Z,17.20
2017-09-21T09:13:53.661Z,17.30
2017-09-21T09:16:22.225Z,17.10
2017-09-21T09:18:51.866Z,17.10
2017-09-21T09:21:21.636Z,17.50
2017-09-21T09:23:49.917Z,17.30
2017-09-21T09:26:19.615Z,17.70
2017-09-21T09:28:47.944Z,17.40
2017-09-21T09:31:16.829Z,17.60
2017-09-21T09:33:48.789Z,17.40
2017-09-21T09:36:17.434Z,17.70
2017-09-21T09:38:45.704Z,17.80
2017-09-21T09:41:16.127Z,17.80
2017-09-21T09:43:46.353Z,18.00
2017-09-21T09:46:15.423Z,18.10
2017-09-21T09:48:45.368Z,17.90
2017-09-21T09:51:15.394Z,18.30
2017-09-21T09:53:44.464Z,18.20
2017-09-21T09:56:14.688Z,18.30
2017-09-21T09:58:44.041Z,18.10
2017-09-21T10:01:12.388Z,18.30
2017-09-21T10:03:41.596Z,18.50
2017-09-21T10:06:10.044Z,18.20
2017-09-21T10:08:39.137Z,18.60
2017-09-21T10:11:07.846Z,18.30
2017-09-21T10:13:37.095Z,18.50
2017-09-21T10:16:05.598Z,18.50
2017-09-21T10:18:35.130Z,18.70
2017-09-21T10:21:03.715Z,18.60
2017-09-21T10:23:32.240Z,18.80
2017-09-21T10:26:00.746Z,18.90
2017-09-21T10:28:30.951Z,18.80
2017-09-21T10:31:00.133Z,19.10
2017-09-21T10:33:29.358Z,18.90
2017-09-21T10:36:00.018Z,19.10
2017-09-21T10:38:28.573Z,19.00
2017-09-21T10:40:57.319Z,19.00
2017-09-21T10:43:25.833Z,18.90
2017-09-21T10:45:54.182Z,19.20
2017-09-21T10:48:22.535Z,19.20
2017-09-21T10:50:50.951Z,19.10
2017-09-21T10:53:20.411Z,19.50
2017-09-21T10:55:48.696Z,19.40
2017-09-21T10:58:16.969Z,19.60
2017-09-21T11:00:45.322Z,19.30
2017-09-21T11:03:14.449Z,19.50
2017-09-21T11:05:42.714Z,19.30
2017-09-21T11:08:10.974Z,19.50
2017-09-21T11:10:39.298Z,19.50
2017-09-21T11:13:07.555Z,19.50
2017-09-21T11:15:35.884Z,19.60
2017-09-21T11:18:04.228Z,19.70
2017-09-21T11:20:45.644Z,19.70
2017-09-21T11:23:13.945Z,19.60
2017-09-21T11:25:46.206Z,19.80
2017-09-21T11:28:15.326Z,19.70
2017-09-21T11:30:43.634Z,19.80
2017-09-21T11:33:12.706Z,19.90
2017-09-21T11:35:40.984Z,19.90
2017-09-21T11:38:09.867Z,19.90
2017-09-21T11:40:38.109Z,20.00
2017-09-21T11:43:06.931Z,19.80
2017-09-21T11:45:35.188Z,20.00
2017-09-21T11:48:03.487Z,20.00
2017-09-21T11:50:31.766Z,19.90
2017-09-21T11:53:00.051Z,20.00
2017-09-21T11:55:30.387Z,20.10
2017-09-21T11:57:58.697Z,20.00
2017-09-21T12:00:27.757Z,20.20
2017-09-21T12:02:57.582Z,20.20
2017-09-21T12:05:27.651Z,20.10
2017-09-21T12:07:55.918Z,20.30
2017-09-21T12:10:24.214Z,20.20
2017-09-21T12:12:52.593Z,20.10
2017-09-21T12:15:22.967Z,20.50
2017-09-21T12:17:51.222Z,20.30
2017-09-21T12:20:19.494Z,20.60
2017-09-21T12:22:47.779Z,20.60
2017-09-21T12:25:18.587Z,20.40
2017-09-21T12:27:46.890Z,20.40
2017-09-21T12:30:15.168Z,20.30
2017-09-21T12:32:43.458Z,20.30
2017-09-21T12:35:11.801Z,20.40
2017-09-21T12:37:40.131Z,20.50
2017-09-21T12:40:09.478Z,20.10
2017-09-21T12:42:37.731Z,20.50
2017-09-21T12:45:06.115Z,20.70
2017-09-21T12:47:34.373Z,20.60
2017-09-21T12:50:03.447Z,20.60
2017-09-21T12:52:31.747Z,20.60
2017-09-21T12:55:01.651Z,20.60
2017-09-21T12:57:30.704Z,20.50
2017-09-21T12:59:59.016Z,20.30
2017-09-21T13:02:27.280Z,20.60
2017-09-21T13:04:55.572Z,20.80
2017-09-21T13:07:23.867Z,20.80
2017-09-21T13:09:52.934Z,20.50
2017-09-21T13:12:21.211Z,20.30
2017-09-21T13:14:49.874Z,20.90
2017-09-21T13:17:18.951Z,20.90
2017-09-21T13:19:47.217Z,20.90
2017-09-21T13:22:16.951Z,20.90
2017-09-21T13:24:45.273Z,21.00
2017-09-21T13:27:13.562Z,21.00
2017-09-21T13:29:42.801Z,21.00
2017-09-21T13:32:11.046Z,20.90
2017-09-21T13:34:40.055Z,21.10
2017-09-21T13:37:12.457Z,20.70
2017-09-21T13:39:40.731Z,21.00
2017-09-21T13:42:09.101Z,21.00
2017-09-21T13:44:38.980Z,20.90
2017-09-21T13:47:08.060Z,21.00
2017-09-21T13:49:37.258Z,21.00
2017-09-21T13:52:06.307Z,20.90
2017-09-21T13:54:34.725Z,21.00
2017-09-21T13:57:03.760Z,21.10
2017-09-21T13:59:32.524Z,21.00
2017-09-21T14:02:01.270Z,21.10
2017-09-21T14:04:29.702Z,21.10
2017-09-21T14:06:58.012Z,21.20
2017-09-21T14:09:26.350Z,21.10
2017-09-21T14:11:55.387Z,21.10
2017-09-21T14:14:24.213Z,21.20
2017-09-21T14:16:52.875Z,21.20
2017-09-21T14:19:22.143Z,21.10
2017-09-21T14:21:50.622Z,21.10
2017-09-21T14:24:19.463Z,21.20
2017-09-21T14:26:48.240Z,21.10
2017-09-21T14:29:16.722Z,21.10
2017-09-21T14:31:46.037Z,21.10
2017-09-21T14:34:14.849Z,21.10
2017-09-21T14:36:43.150Z,21.10
2017-09-21T14:39:11.857Z,21.10
2017-09-21T14:41:44.529Z,21.10
2017-09-21T14:44:13.189Z,21.20
2017-09-21T14:46:41.554Z,21.10
2017-09-21T14:49:09.952Z,21.40
2017-09-21T14:51:39.139Z,21.20
2017-09-21T14:54:07.447Z,21.20
2017-09-21T14:56:36.002Z,20.90
2017-09-21T14:59:06.088Z,21.30
2017-09-21T15:01:34.549Z,21.30
2017-09-21T15:04:03.007Z,21.20
2017-09-21T15:06:32.285Z,21.00
2017-09-21T15:09:01.426Z,21.20
2017-09-21T15:11:30.505Z,21.20
2017-09-21T15:13:58.918Z,21.00
2017-09-21T15:16:28.032Z,21.40
2017-09-21T15:18:56.367Z,21.20
2017-09-21T15:21:24.732Z,21.10
2017-09-21T15:23:52.998Z,21.20
2017-09-21T15:26:21.362Z,21.10
2017-09-21T15:28:49.632Z,20.90
2017-09-21T15:31:18.857Z,21.20
2017-09-21T15:33:47.371Z,21.20
2017-09-21T15:36:16.708Z,20.90
2017-09-21T15:38:46.543Z,21.30
2017-09-21T15:41:16.226Z,21.10
2017-09-21T15:43:44.629Z,21.00
2017-09-21T15:46:13.043Z,20.70
2017-09-21T15:48:41.364Z,20.90
2017-09-21T15:51:11.369Z,20.50
2017-09-21T15:53:39.670Z,20.70
2017-09-21T15:56:08.932Z,20.90
2017-09-21T15:58:37.323Z,20.80
2017-09-21T16:01:06.424Z,20.70
2017-09-21T16:03:37.872Z,20.80
2017-09-21T16:06:06.174Z,21.10
2017-09-21T16:08:34.472Z,20.80
2017-09-21T16:11:02.771Z,20.30
2017-09-21T16:13:31.158Z,20.70
2017-09-21T16:15:59.452Z,20.70
2017-09-21T16:18:27.736Z,20.80
2017-09-21T16:20:56.768Z,20.80
2017-09-21T16:23:26.653Z,20.50
2017-09-21T16:25:56.460Z,20.80
2017-09-21T16:28:24.743Z,20.60
2017-09-21T16:30:53.893Z,20.70
2017-09-21T16:33:23.010Z,20.80
2017-09-21T16:35:52.058Z,21.00
2017-09-21T16:38:21.252Z,20.80
2017-09-21T16:40:50.332Z,20.70
2017-09-21T16:43:18.852Z,20.90
2017-09-21T16:45:47.204Z,20.60
2017-09-21T16:48:15.532Z,20.90
2017-09-21T16:50:43.871Z,20.50
2017-09-21T16:53:13.176Z,20.40
2017-09-21T16:55:41.785Z,20.60
2017-09-21T16:58:11.136Z,20.80
2017-09-21T17:00:41.036Z,20.70
2017-09-21T17:03:10.315Z,20.40
2017-09-21T17:05:38.837Z,20.10
2017-09-21T17:08:08.166Z,20.50
2017-09-21T17:10:36.617Z,20.30
2017-09-21T17:13:05.250Z,20.60
2017-09-21T17:15:34.409Z,20.10
2017-09-21T17:18:02.838Z,20.20
2017-09-21T17:20:31.309Z,20.20
2017-09-21T17:22:59.841Z,20.10
2017-09-21T17:25:29.400Z,20.20
2017-09-21T17:27:58.740Z,20.20
2017-09-21T17:30:28.216Z,20.20
2017-09-21T17:32:56.761Z,20.20
2017-09-21T17:35:26.089Z,19.90
2017-09-21T17:37:56.770Z,19.90
2017-09-21T17:40:27.244Z,19.80
2017-09-21T17:42:55.717Z,19.70
2017-09-21T17:45:24.967Z,19.80
2017-09-21T17:47:54.057Z,19.60
2017-09-21T17:50:22.386Z,19.40
2017-09-21T17:52:50.760Z,19.60
2017-09-21T17:55:19.107Z,19.60
2017-09-21T17:57:47.465Z,19.60
2017-09-21T18:00:15.919Z,19.50
2017-09-21T18:02:45.336Z,19.30
2017-09-21T18:05:13.741Z,19.50
2017-09-21T18:07:42.876Z,19.30
2017-09-21T18:10:11.249Z,19.50
2017-09-21T18:12:40.607Z,19.50
2017-09-21T18:15:09.774Z,19.20
2017-09-21T18:17:39.305Z,19.00
2017-09-21T18:20:08.410Z,18.90
2017-09-21T18:22:39.690Z,18.80
2017-09-21T18:25:08.944Z,18.90
2017-09-21T18:27:37.291Z,18.70
2017-09-21T18:30:05.567Z,18.60
2017-09-21T18:32:35.024Z,18.70
2017-09-21T18:35:05.148Z,18.60
2017-09-21T18:37:35.324Z,18.60
2017-09-21T18:40:03.761Z,18.70
2017-09-21T18:42:32.235Z,18.70
2017-09-21T18:45:01.548Z,18.50
2017-09-21T18:47:29.946Z,18.40
2017-09-21T18:49:59.296Z,18.50
2017-09-21T18:52:28.716Z,18.60
2017-09-21T18:54:57.392Z,18.30
2017-09-21T18:57:28.610Z,18.40
2017-09-21T18:59:58.628Z,18.30
2017-09-21T19:02:29.050Z,18.40
2017-09-21T19:05:02.979Z,18.30
2017-09-21T19:07:34.930Z,18.50
2017-09-21T19:10:03.422Z,18.30
2017-09-21T19:12:33.437Z,18.40
2017-09-21T19:15:01.921Z,18.30
2017-09-21T19:17:30.519Z,18.50
2017-09-21T19:20:01.265Z,17.90
2017-09-21T19:22:30.344Z,18.00
2017-09-21T19:25:00.860Z,17.90
2017-09-21T19:27:31.805Z,18.10
2017-09-21T19:30:00.442Z,17.90
2017-09-21T19:32:28.925Z,17.90
2017-09-21T19:34:57.491Z,18.20
2017-09-21T19:37:25.906Z,18.00
2017-09-21T19:39:54.357Z,17.70
2017-09-21T19:42:22.773Z,18.00
2017-09-21T19:44:51.912Z,17.80
2017-09-21T19:47:20.355Z,18.00
2017-09-21T19:49:51.059Z,17.90
2017-09-21T19:52:19.714Z,17.90
2017-09-21T19:54:50.745Z,17.80
2017-09-21T19:57:20.435Z,17.90
2017-09-21T19:59:49.534Z,17.70
2017-09-21T20:02:22.425Z,17.60
2017-09-21T20:04:52.999Z,17.40
2017-09-21T20:07:23.642Z,17.50
2017-09-21T20:09:52.735Z,17.50
2017-09-21T20:12:21.049Z,17.50
2017-09-21T20:14:49.925Z,17.40
2017-09-21T20:17:18.343Z,17.60
2017-09-21T20:19:47.573Z,17.30
2017-09-21T20:22:16.781Z,17.40
2017-09-21T20:24:45.367Z,17.50
2017-09-21T20:27:13.767Z,17.60
2017-09-21T20:29:42.354Z,17.50
2017-09-21T20:32:10.704Z,17.60
2017-09-21T20:34:39.136Z,17.50
2017-09-21T20:37:12.126Z,17.50
2017-09-21T20:39:41.229Z,17.50
2017-09-21T20:42:09.593Z,17.40
2017-09-21T20:44:38.751Z,17.40
2017-09-21T20:47:07.140Z,17.30
2017-09-21T20:49:36.270Z,17.50
2017-09-21T20:52:05.678Z,17.40
2017-09-21T20:54:35.904Z,17.40
2017-09-21T20:57:04.447Z,17.30
2017-09-21T20:59:33.631Z,17.20
2017-09-21T21:02:01.910Z,17.40
2017-09-21T21:04:30.221Z,17.00
2017-09-21T21:06:58.478Z,17.30
2017-09-21T21:09:26.838Z,17.20
2017-09-21T21:11:55.115Z,17.30
2017-09-21T21:14:23.462Z,17.20
2017-09-21T21:16:52.506Z,17.30
2017-09-21T21:19:21.677Z,17.30
2017-09-21T21:21:50.802Z,17.10
2017-09-21T21:24:19.136Z,17.40
2017-09-21T21:26:47.530Z,17.50
2017-09-21T21:29:15.806Z,17.20
2017-09-21T21:31:44.123Z,17.20
2017-09-21T21:34:12.507Z,17.30
2017-09-21T21:36:40.890Z,17.40
2017-09-21T21:39:10.132Z,17.30
2017-09-21T21:41:38.398Z,17.40
2017-09-21T21:44:09.227Z,17.40
2017-09-21T21:46:38.405Z,17.60
2017-09-21T21:49:06.735Z,17.30
2017-09-21T21:51:35.802Z,17.30
2017-09-21T21:54:05.033Z,17.50
2017-09-21T21:56:33.306Z,17.30
2017-09-21T21:59:01.600Z,17.50
2017-09-21T22:01:30.766Z,17.30
2017-09-21T22:04:01.233Z,17.40
2017-09-21T22:06:34.422Z,17.30
2017-09-21T22:09:03.457Z,17.10
2017-09-21T22:11:32.704Z,17.20
2017-09-21T22:14:02.179Z,17.40
2017-09-21T22:16:31.556Z,17.20
2017-09-21T22:18:59.844Z,17.20
2017-09-21T22:21:28.103Z,17.40
2017-09-21T22:23:57.388Z,17.20
2017-09-21T22:26:25.879Z,17.10
2017-09-21T22:28:54.936Z,17.20
2017-09-21T22:31:23.440Z,16.90
2017-09-21T22:33:52.049Z,17.10
2017-09-21T22:36:21.746Z,17.00
2017-09-21T22:38:52.093Z,17.10
2017-09-21T22:41:20.351Z,17.10
2017-09-21T22:43:48.669Z,17.00
2017-09-21T22:46:16.997Z,17.00
2017-09-21T22:48:46.270Z,16.90
2017-09-21T22:51:15.397Z,17.10
2017-09-21T22:53:43.810Z,16.90
2017-09-21T22:56:12.222Z,16.90
2017-09-21T22:58:40.508Z,16.80
2017-09-21T23:01:10.634Z,16.80
2017-09-21T23:03:38.902Z,17.00
2017-09-21T23:06:08.120Z,16.80
2017-09-21T23:08:37.329Z,16.90
2017-09-21T23:11:05.545Z,16.80
2017-09-21T23:13:33.874Z,16.70
2017-09-21T23:16:03.739Z,16.90
2017-09-21T23:18:32.034Z,17.00
2017-09-21T23:21:01.291Z,17.00
2017-09-21T23:23:29.553Z,16.80
2017-09-21T23:25:57.895Z,17.00
2017-09-21T23:28:26.321Z,16.80
2017-09-21T23:30:54.770Z,16.90
2017-09-21T23:33:24.835Z,17.20
2017-09-21T23:35:53.131Z,17.00
2017-09-21T23:38:21.415Z,16.60
2017-09-21T23:40:50.939Z,16.80
2017-09-21T23:43:20.006Z,16.80
2017-09-21T23:45:49.604Z,16.90
2017-09-21T23:48:18.136Z,16.70
2017-09-21T23:50:46.457Z,17.00
2017-09-21T23:53:14.945Z,16.50
2017-09-21T23:55:43.187Z,16.80
2017-09-21T23:58:11.499Z,16.50
